createdAt,value
2022-11-15T00:01:18.737Z,100729.63
2022-11-15T00:03:46.301Z,100729.63
2022-11-15T00:06:13.415Z,100730.50
2022-11-15T00:08:40.406Z,100736.50
2022-11-15T00:11:07.548Z,100722.75
2022-11-15T00:13:35.015Z,100737.31
2022-11-15T00:16:03.228Z,100736.59
2022-11-15T00:18:31.267Z,100743.53
2022-11-15T00:21:08.069Z,100723.72
2022-11-15T00:23:35.073Z,100726.47
2022-11-15T00:26:02.618Z,100724.84
2022-11-15T00:28:29.704Z,100718.75
2022-11-15T00:31:07.739Z,100718.88
2022-11-15T00:33:35.005Z,100723.19
2022-11-15T00:36:08.109Z,100726.69
2022-11-15T00:38:36.693Z,100722.44
2022-11-15T00:41:09.311Z,100727.63
2022-11-15T00:43:37.376Z,100726.81
2022-11-15T00:46:04.561Z,100722.50
2022-11-15T00:48:32.484Z,100724.13
2022-11-15T00:50:59.607Z,100722.50
2022-11-15T00:53:27.219Z,100718.28
2022-11-15T00:55:54.423Z,100715.81
2022-11-15T00:58:21.437Z,100714.97
2022-11-15T01:00:48.648Z,100703.88
2022-11-15T01:03:15.713Z,100704.75
2022-11-15T01:05:42.725Z,100703.91
2022-11-15T01:08:14.631Z,100691.09
2022-11-15T01:10:41.983Z,100688.56
2022-11-15T01:13:09.417Z,100687.78
2022-11-15T01:15:40.897Z,100692.19
2022-11-15T01:18:08.058Z,100689.66
2022-11-15T01:20:35.105Z,100694.03
2022-11-15T01:23:02.144Z,100684.69
2022-11-15T01:25:29.359Z,100679.47
2022-11-15T01:27:56.352Z,100684.88
2022-11-15T01:30:23.415Z,100679.00
2022-11-15T01:32:50.437Z,100677.41
2022-11-15T01:35:17.454Z,100673.25
2022-11-15T01:37:44.477Z,100675.97
2022-11-15T01:40:11.684Z,100665.69
2022-11-15T01:42:38.816Z,100671.97
2022-11-15T01:45:06.348Z,100669.56
2022-11-15T01:47:41.174Z,100669.75
2022-11-15T01:50:15.597Z,100674.97
2022-11-15T01:52:43.620Z,100670.81
2022-11-15T01:55:22.724Z,100659.72
2022-11-15T01:57:54.212Z,100662.47
2022-11-15T02:00:21.291Z,100657.47
2022-11-15T02:02:48.471Z,100649.84
2022-11-15T02:05:16.162Z,100652.50
2022-11-15T02:07:43.752Z,100652.50
2022-11-15T02:10:14.548Z,100652.66
2022-11-15T02:12:42.349Z,100655.34
2022-11-15T02:15:10.909Z,100651.16
2022-11-15T02:18:24.796Z,100647.81
2022-11-15T02:20:57.903Z,100639.28
2022-11-15T02:23:37.857Z,100631.59
2022-11-15T02:26:10.389Z,100628.25
2022-11-15T02:28:49.223Z,100629.19
2022-11-15T02:31:37.865Z,100623.25
2022-11-15T02:34:16.801Z,100619.03
2022-11-15T02:37:07.193Z,100618.28
2022-11-15T02:39:52.322Z,100601.22
2022-11-15T02:42:44.416Z,100602.19
2022-11-15T02:45:22.744Z,100600.75
2022-11-15T02:47:53.412Z,100603.44
2022-11-15T02:50:25.362Z,100590.56
2022-11-15T02:52:52.593Z,100596.66
2022-11-15T02:55:26.993Z,100600.22
2022-11-15T02:58:17.144Z,100579.59
2022-11-15T03:01:09.203Z,100580.72
2022-11-15T03:04:03.582Z,100580.91
2022-11-15T03:06:30.427Z,100570.69
2022-11-15T03:09:22.482Z,100567.31
2022-11-15T03:11:57.285Z,100567.44
2022-11-15T03:14:33.753Z,100562.38
2022-11-15T03:17:19.748Z,100569.38
2022-11-15T03:19:54.583Z,100575.41
2022-11-15T03:22:27.366Z,100570.19
2022-11-15T03:24:59.632Z,100576.47
2022-11-15T03:27:32.614Z,100582.59
2022-11-15T03:30:04.883Z,100580.97
2022-11-15T03:32:35.361Z,100571.59
2022-11-15T03:35:05.338Z,100579.28
2022-11-15T03:37:41.675Z,100580.25
2022-11-15T03:40:09.420Z,100572.63
2022-11-15T03:42:53.393Z,100582.09
2022-11-15T03:45:28.280Z,100563.19
2022-11-15T03:48:09.842Z,100577.22
2022-11-15T03:50:37.483Z,100574.91
2022-11-15T03:53:04.598Z,100576.81
2022-11-15T03:55:32.978Z,100566.56
2022-11-15T03:58:01.909Z,100575.34
2022-11-15T04:00:29.796Z,100565.13
2022-11-15T04:02:56.966Z,100564.34
2022-11-15T04:05:24.389Z,100566.19
2022-11-15T04:07:51.650Z,100562.84
2022-11-15T04:10:18.968Z,100562.13
2022-11-15T04:12:50.026Z,100573.38
2022-11-15T04:15:19.872Z,100571.72
2022-11-15T04:17:52.782Z,100567.50
2022-11-15T04:20:44.475Z,100570.19
2022-11-15T04:23:35.499Z,100567.63
2022-11-15T04:26:05.997Z,100565.09
2022-11-15T04:28:32.977Z,100559.94
2022-11-15T04:31:00.207Z,100561.84
2022-11-15T04:33:27.174Z,100564.63
2022-11-15T04:36:13.112Z,100558.78
2022-11-15T04:38:40.323Z,100549.28
2022-11-15T04:41:07.720Z,100557.25
2022-11-15T04:43:34.951Z,100554.66
2022-11-15T04:46:02.114Z,100542.16
2022-11-15T04:48:29.121Z,100550.25
2022-11-15T04:50:56.122Z,100539.84
2022-11-15T04:53:23.104Z,100549.47
2022-11-15T04:55:50.071Z,100545.09
2022-11-15T04:58:17.095Z,100545.97
2022-11-15T05:00:44.120Z,100548.53
2022-11-15T05:03:30.450Z,100543.38
2022-11-15T05:05:58.715Z,100541.63
2022-11-15T05:08:26.134Z,100545.16
2022-11-15T05:10:53.136Z,100540.75
2022-11-15T05:13:20.149Z,100543.47
2022-11-15T05:15:48.168Z,100546.31
2022-11-15T05:18:18.287Z,100542.16
2022-11-15T05:20:49.296Z,100549.09
2022-11-15T05:23:16.392Z,100561.16
2022-11-15T05:25:43.840Z,100560.34
2022-11-15T05:28:10.964Z,100556.06
2022-11-15T05:30:37.941Z,100562.88
2022-11-15T05:33:05.433Z,100556.81
2022-11-15T05:35:40.811Z,100556.75
2022-11-15T05:38:08.248Z,100563.72
2022-11-15T05:40:35.894Z,100571.38
2022-11-15T05:43:05.380Z,100569.66
2022-11-15T05:45:34.528Z,100564.66
2022-11-15T05:48:05.550Z,100563.75
2022-11-15T05:50:33.035Z,100555.81
2022-11-15T05:53:05.111Z,100568.91
2022-11-15T05:55:32.699Z,100571.53
2022-11-15T05:58:00.502Z,100575.94
2022-11-15T06:00:27.544Z,100581.16
2022-11-15T06:02:54.542Z,100578.63
2022-11-15T06:05:21.581Z,100578.56
2022-11-15T06:07:48.677Z,100580.41
2022-11-15T06:10:15.724Z,100581.22
2022-11-15T06:12:42.757Z,100583.00
2022-11-15T06:15:09.966Z,100574.44
2022-11-15T06:17:37.359Z,100589.16
2022-11-15T06:20:04.521Z,100582.25
2022-11-15T06:22:31.574Z,100585.75
2022-11-15T06:25:04.067Z,100585.88
2022-11-15T06:27:32.152Z,100594.69
2022-11-15T06:29:59.059Z,100598.16
2022-11-15T06:32:26.103Z,100596.50
2022-11-15T06:34:53.115Z,100595.59
2022-11-15T06:37:20.109Z,100601.66
2022-11-15T06:39:47.092Z,100605.19
2022-11-15T06:42:14.625Z,100599.16
2022-11-15T06:44:41.635Z,100602.56
2022-11-15T06:47:08.692Z,100589.69
2022-11-15T06:49:35.703Z,100586.97
2022-11-15T06:52:02.794Z,100591.31
2022-11-15T06:54:29.847Z,100594.00
2022-11-15T06:56:56.858Z,100589.59
2022-11-15T06:59:23.841Z,100598.16
2022-11-15T07:01:50.888Z,100606.72
2022-11-15T07:04:17.966Z,100604.97
2022-11-15T07:06:48.823Z,100605.09
2022-11-15T07:09:15.884Z,100622.44
2022-11-15T07:11:42.967Z,100617.16
2022-11-15T07:14:10.057Z,100618.22
2022-11-15T07:16:39.677Z,100619.19
2022-11-15T07:19:06.938Z,100613.13
2022-11-15T07:21:33.945Z,100624.31
2022-11-15T07:24:00.967Z,100611.19
2022-11-15T07:26:27.973Z,100623.38
2022-11-15T07:28:55.532Z,100620.91
2022-11-15T07:31:23.358Z,100627.81
2022-11-15T07:33:50.393Z,100620.25
2022-11-15T07:36:17.659Z,100622.75
2022-11-15T07:38:44.996Z,100616.84
2022-11-15T07:41:12.111Z,100628.00
2022-11-15T07:43:39.118Z,100628.06
2022-11-15T07:46:10.002Z,100625.53
2022-11-15T07:48:45.129Z,100625.53
2022-11-15T07:51:15.159Z,100619.50
2022-11-15T07:53:43.963Z,100616.94
2022-11-15T07:56:12.200Z,100614.38
2022-11-15T07:58:39.278Z,100608.34
2022-11-15T08:01:08.027Z,100613.69
2022-11-15T08:03:35.526Z,100612.84
2022-11-15T08:06:03.070Z,100610.22
2022-11-15T08:08:30.144Z,100604.16
2022-11-15T08:10:59.845Z,100604.91
2022-11-15T08:13:26.955Z,100604.16
2022-11-15T08:16:01.360Z,100607.72
2022-11-15T08:18:28.370Z,100602.34
2022-11-15T08:21:00.095Z,100594.56
2022-11-15T08:23:27.109Z,100606.59
2022-11-15T08:25:59.659Z,100601.56
2022-11-15T08:28:26.708Z,100604.19
2022-11-15T08:30:53.859Z,100608.53
2022-11-15T08:33:20.906Z,100604.31
2022-11-15T08:35:48.116Z,100600.94
2022-11-15T08:38:15.921Z,100607.78
2022-11-15T08:40:42.925Z,100591.38
2022-11-15T08:43:10.241Z,100604.38
2022-11-15T08:45:37.290Z,100592.38
2022-11-15T08:48:04.710Z,100582.88
2022-11-15T08:50:31.808Z,100577.69
2022-11-15T08:52:59.081Z,100578.59
2022-11-15T08:55:26.221Z,100581.25
2022-11-15T08:57:53.204Z,100570.13
2022-11-15T09:00:21.070Z,100572.69
2022-11-15T09:02:48.128Z,100571.09
2022-11-15T09:05:16.825Z,100569.53
2022-11-15T09:07:44.847Z,100573.09
2022-11-15T09:10:11.950Z,100576.66
2022-11-15T09:12:39.097Z,100583.66
2022-11-15T09:15:07.672Z,100581.19
2022-11-15T09:17:34.660Z,100574.31
2022-11-15T09:20:01.798Z,100562.25
2022-11-15T09:22:29.622Z,100565.00
2022-11-15T09:24:56.685Z,100557.34
2022-11-15T09:27:23.710Z,100568.63
2022-11-15T09:29:50.683Z,100558.28
2022-11-15T09:32:17.715Z,100562.66
2022-11-15T09:34:45.162Z,100563.56
2022-11-15T09:37:13.202Z,100566.94
2022-11-15T09:39:40.725Z,100566.03
2022-11-15T09:42:20.323Z,100569.47
2022-11-15T09:45:00.804Z,100564.28
2022-11-15T09:47:36.518Z,100562.53
2022-11-15T09:50:10.849Z,100554.78
2022-11-15T09:52:42.362Z,100565.13
2022-11-15T09:55:22.099Z,100555.69
2022-11-15T09:57:59.409Z,100553.22
2022-11-15T10:00:51.529Z,100563.63
2022-11-15T10:03:28.531Z,100560.22
2022-11-15T10:06:01.585Z,100558.47
2022-11-15T10:09:16.464Z,100559.19
2022-11-15T10:11:45.831Z,100543.63
2022-11-15T10:14:20.942Z,100542.75
2022-11-15T10:16:53.828Z,100548.06
2022-11-15T10:19:29.119Z,100536.00
2022-11-15T10:22:15.907Z,100542.22
2022-11-15T10:24:45.046Z,100548.22
2022-11-15T10:27:15.026Z,100544.03
2022-11-15T10:29:49.973Z,100542.25
2022-11-15T10:32:21.408Z,100540.59
2022-11-15T10:34:50.694Z,100534.63
2022-11-15T10:37:30.385Z,100520.75
2022-11-15T10:40:16.107Z,100531.97
2022-11-15T10:42:43.101Z,100531.00
2022-11-15T10:45:29.429Z,100515.50
2022-11-15T10:48:21.425Z,100509.50
2022-11-15T10:50:50.746Z,100502.53
2022-11-15T10:53:36.616Z,100507.75
2022-11-15T10:56:10.002Z,100499.97
2022-11-15T10:58:41.064Z,100503.47
2022-11-15T11:01:12.596Z,100476.63
2022-11-15T11:03:42.399Z,100481.84
2022-11-15T11:06:18.366Z,100483.59
2022-11-15T11:08:55.688Z,100476.75
2022-11-15T11:11:23.115Z,100474.16
2022-11-15T11:13:50.316Z,100482.88
2022-11-15T11:16:48.327Z,100469.97
2022-11-15T11:19:31.667Z,100491.69
2022-11-15T11:22:20.101Z,100482.22
2022-11-15T11:24:52.957Z,100465.84
2022-11-15T11:27:38.664Z,100469.31
2022-11-15T11:30:30.215Z,100470.97
2022-11-15T11:33:04.377Z,100463.22
2022-11-15T11:36:06.623Z,100464.13
2022-11-15T11:38:57.220Z,100462.41
2022-11-15T11:41:42.417Z,100466.72
2022-11-15T11:44:26.553Z,100469.34
2022-11-15T11:46:54.043Z,100459.88
2022-11-15T11:49:40.404Z,100455.50
2022-11-15T11:52:36.453Z,100453.78
2022-11-15T11:55:15.831Z,100451.22
2022-11-15T11:58:11.263Z,100448.63
2022-11-15T12:01:08.559Z,100438.28
2022-11-15T12:03:44.971Z,100435.69
2022-11-15T12:06:33.674Z,100429.66
2022-11-15T12:09:07.889Z,100421.91
2022-11-15T12:11:52.875Z,100409.84
2022-11-15T12:14:40.496Z,100411.59
2022-11-15T12:17:11.576Z,100399.50
2022-11-15T12:19:40.144Z,100397.81
2022-11-15T12:22:17.556Z,100399.47
2022-11-15T12:24:56.447Z,100398.59
2022-11-15T12:27:49.612Z,100384.72
2022-11-15T12:30:20.922Z,100381.31
2022-11-15T12:32:55.668Z,100376.97
2022-11-15T12:35:35.257Z,100368.31
2022-11-15T12:38:02.602Z,100365.69
2022-11-15T12:40:38.363Z,100364.03
2022-11-15T12:43:14.209Z,100364.91
2022-11-15T12:45:43.921Z,100364.03
2022-11-15T12:48:17.490Z,100361.44
2022-11-15T12:50:56.322Z,100349.34
2022-11-15T12:53:26.055Z,100346.78
2022-11-15T12:56:10.278Z,100340.72
2022-11-15T12:58:49.485Z,100337.28
2022-11-15T13:01:31.739Z,100338.16
2022-11-15T13:04:20.498Z,100323.47
2022-11-15T13:06:52.269Z,100325.22
2022-11-15T13:09:37.360Z,100315.72
2022-11-15T13:12:04.793Z,100319.16
2022-11-15T13:14:37.568Z,100313.09
2022-11-15T13:17:20.072Z,100304.44
2022-11-15T13:19:49.131Z,100304.41
2022-11-15T13:22:34.432Z,100293.16
2022-11-15T13:25:04.913Z,100300.94
2022-11-15T13:27:32.309Z,100296.59
2022-11-15T13:29:59.523Z,100295.75
2022-11-15T13:32:26.616Z,100281.88
2022-11-15T13:34:53.822Z,100289.63
2022-11-15T13:37:20.806Z,100289.59
2022-11-15T13:39:49.099Z,100278.38
2022-11-15T13:42:18.103Z,100267.13
2022-11-15T13:45:01.776Z,100274.03
2022-11-15T13:47:30.344Z,100271.41
2022-11-15T13:50:02.059Z,100264.50
2022-11-15T13:52:35.026Z,100267.94
2022-11-15T13:55:22.415Z,100251.53
2022-11-15T13:57:59.127Z,100254.06
2022-11-15T14:00:44.393Z,100245.38
2022-11-15T14:03:25.449Z,100248.88
2022-11-15T14:06:13.053Z,100249.75
2022-11-15T14:09:00.013Z,100241.94
2022-11-15T14:11:27.176Z,100239.34
2022-11-15T14:14:09.843Z,100243.63
2022-11-15T14:16:39.931Z,100232.38
2022-11-15T14:19:11.554Z,100235.81
2022-11-15T14:21:38.741Z,100229.75
2022-11-15T14:24:22.325Z,100225.41
2022-11-15T14:26:49.468Z,100218.44
2022-11-15T14:29:30.697Z,100215.03
2022-11-15T14:32:24.773Z,100209.84
2022-11-15T14:34:59.747Z,100206.38
2022-11-15T14:37:33.965Z,100198.56
2022-11-15T14:40:05.687Z,100199.47
2022-11-15T14:42:33.068Z,100201.19
2022-11-15T14:45:00.102Z,100196.91
2022-11-15T14:47:27.194Z,100190.84
2022-11-15T14:49:54.245Z,100178.75
2022-11-15T14:52:34.412Z,100181.38
2022-11-15T14:55:11.486Z,100185.69
2022-11-15T14:57:38.443Z,100174.44
2022-11-15T15:00:05.935Z,100167.56
2022-11-15T15:02:32.951Z,100167.56
2022-11-15T15:05:02.072Z,100162.38
2022-11-15T15:07:29.280Z,100154.63
2022-11-15T15:10:11.362Z,100149.47
2022-11-15T15:12:44.304Z,100143.41
2022-11-15T15:15:22.782Z,100136.47
2022-11-15T15:17:49.804Z,100133.91
2022-11-15T15:20:17.419Z,100114.88
2022-11-15T15:22:45.363Z,100133.03
2022-11-15T15:25:32.889Z,100118.34
2022-11-15T15:28:00.710Z,100113.16
2022-11-15T15:30:29.816Z,100111.41
2022-11-15T15:32:57.502Z,100102.81
2022-11-15T15:35:29.464Z,100095.03
2022-11-15T15:37:56.519Z,100091.59
2022-11-15T15:40:25.194Z,100086.41
2022-11-15T15:42:52.312Z,100090.75
2022-11-15T15:45:19.688Z,100086.41
2022-11-15T15:47:47.500Z,100078.66
2022-11-15T15:50:30.645Z,100085.56
2022-11-15T15:52:59.861Z,100078.66
2022-11-15T15:55:27.623Z,100068.28
2022-11-15T15:57:55.390Z,100075.19
2022-11-15T16:00:26.440Z,100073.47
2022-11-15T16:02:54.438Z,100070.06
2022-11-15T16:05:22.934Z,100058.81
2022-11-15T16:07:50.023Z,100061.41
2022-11-15T16:10:32.235Z,100047.63
2022-11-15T16:12:59.486Z,100038.97
2022-11-15T16:15:30.445Z,100029.47
2022-11-15T16:17:59.542Z,100043.31
2022-11-15T16:20:43.020Z,100048.53
2022-11-15T16:23:12.529Z,100048.50
2022-11-15T16:25:45.610Z,100051.09
2022-11-15T16:28:26.775Z,100047.63
2022-11-15T16:31:06.862Z,100050.19
2022-11-15T16:33:34.421Z,100050.22
2022-11-15T16:36:02.364Z,100046.78
2022-11-15T16:38:31.001Z,100034.69
2022-11-15T16:40:58.225Z,100043.34
2022-11-15T16:43:25.194Z,100039.03
2022-11-15T16:45:52.177Z,100027.78
2022-11-15T16:48:27.625Z,100039.94
2022-11-15T16:50:58.830Z,100041.66
2022-11-15T16:53:26.960Z,100042.53
2022-11-15T16:55:55.819Z,100058.03
2022-11-15T16:58:23.327Z,100051.97
2022-11-15T17:00:53.122Z,100057.13
2022-11-15T17:03:21.430Z,100057.13
2022-11-15T17:05:49.036Z,100059.72
2022-11-15T17:08:16.971Z,100052.81
2022-11-15T17:10:44.493Z,100054.53
2022-11-15T17:13:14.586Z,100042.44
2022-11-15T17:15:42.002Z,100045.88
2022-11-15T17:18:13.253Z,100046.75
2022-11-15T17:20:41.721Z,100036.38
2022-11-15T17:23:14.407Z,100034.66
2022-11-15T17:25:42.039Z,100029.44
2022-11-15T17:28:09.309Z,100032.91
2022-11-15T17:30:36.282Z,100027.69
2022-11-15T17:33:03.378Z,100030.22
2022-11-15T17:35:30.428Z,100033.66
2022-11-15T17:37:57.419Z,100034.50
2022-11-15T17:40:24.555Z,100026.72
2022-11-15T17:42:51.719Z,100028.41
2022-11-15T17:45:18.729Z,100025.75
2022-11-15T17:47:46.359Z,100025.72
2022-11-15T17:50:13.442Z,100018.78
2022-11-15T17:52:40.920Z,100022.22
2022-11-15T17:55:08.270Z,100011.00
2022-11-15T17:57:35.294Z,100017.03
2022-11-15T18:00:02.603Z,100017.88
2022-11-15T18:02:30.329Z,100012.69
2022-11-15T18:04:57.333Z,100012.66
2022-11-15T18:07:24.499Z,100008.34
2022-11-15T18:09:51.559Z,100009.22
2022-11-15T18:12:19.715Z,100003.22
2022-11-15T18:14:47.211Z,100000.66
2022-11-15T18:17:15.410Z,99999.81
2022-11-15T18:19:42.380Z,99983.38
2022-11-15T18:22:10.342Z,100000.66
2022-11-15T18:24:42.831Z,99986.88
2022-11-15T18:27:10.105Z,99989.50
2022-11-15T18:29:38.020Z,99980.84
2022-11-15T18:32:11.420Z,99986.94
2022-11-15T18:34:38.724Z,99993.81
2022-11-15T18:37:06.013Z,99979.13
2022-11-15T18:39:33.308Z,99980.84
2022-11-15T18:42:00.390Z,99977.41
2022-11-15T18:44:29.091Z,99980.88
2022-11-15T18:46:56.557Z,99980.84
2022-11-15T18:49:23.565Z,99973.94
2022-11-15T18:51:50.713Z,99968.78
2022-11-15T18:54:17.870Z,99959.28
2022-11-15T18:56:46.152Z,99970.53
2022-11-15T18:59:14.364Z,99967.06
2022-11-15T19:01:44.418Z,99962.81
2022-11-15T19:04:17.597Z,99958.47
2022-11-15T19:06:47.425Z,99957.59
2022-11-15T19:09:16.419Z,99955.91
2022-11-15T19:11:45.457Z,99953.31
2022-11-15T19:14:14.493Z,99949.00
2022-11-15T19:16:50.223Z,99946.38
2022-11-15T19:19:19.911Z,99944.69
2022-11-15T19:21:47.829Z,99944.69
2022-11-15T19:24:15.531Z,99950.69
2022-11-15T19:26:43.172Z,99946.34
2022-11-15T19:29:11.175Z,99946.38
2022-11-15T19:31:38.452Z,99944.69
2022-11-15T19:34:06.605Z,99944.69
2022-11-15T19:36:39.847Z,99947.25
2022-11-15T19:39:11.691Z,99951.59
2022-11-15T19:41:43.329Z,99947.28
2022-11-15T19:44:12.023Z,99948.13
2022-11-15T19:46:39.440Z,99947.31
2022-11-15T19:49:11.516Z,99935.22
2022-11-15T19:51:41.464Z,99939.56
2022-11-15T19:54:10.229Z,99937.00
2022-11-15T19:56:37.857Z,99936.13
2022-11-15T19:59:05.453Z,99936.13
2022-11-15T20:01:36.389Z,99932.69
2022-11-15T20:04:03.744Z,99927.53
2022-11-15T20:06:33.229Z,99932.69
2022-11-15T20:09:00.286Z,99932.69
2022-11-15T20:11:27.505Z,99936.13
2022-11-15T20:13:59.320Z,99925.75
2022-11-15T20:16:26.463Z,99928.38
2022-11-15T20:18:54.197Z,99923.19
2022-11-15T20:21:21.852Z,99921.47
2022-11-15T20:23:50.738Z,99915.41
2022-11-15T20:26:19.169Z,99911.16
2022-11-15T20:28:47.911Z,99909.41
2022-11-15T20:31:16.970Z,99915.50
2022-11-15T20:33:45.299Z,99912.03
2022-11-15T20:36:16.026Z,99904.25
2022-11-15T20:38:45.251Z,99899.09
2022-11-15T20:41:13.498Z,99903.41
2022-11-15T20:43:43.373Z,99906.84
2022-11-15T20:46:12.825Z,99903.38
2022-11-15T20:48:40.425Z,99898.19
2022-11-15T20:51:16.039Z,99893.84
2022-11-15T20:53:45.160Z,99888.66
2022-11-15T20:56:20.534Z,99886.94
2022-11-15T20:58:50.279Z,99885.25
2022-11-15T21:01:23.333Z,99883.50
2022-11-15T21:03:52.446Z,99875.78
2022-11-15T21:06:20.911Z,99871.47
2022-11-15T21:09:11.206Z,99875.81
2022-11-15T21:11:57.218Z,99875.78
2022-11-15T21:14:24.309Z,99878.41
2022-11-15T21:16:51.596Z,99870.56
2022-11-15T21:19:22.680Z,99856.75
2022-11-15T21:21:52.830Z,99867.97
2022-11-15T21:24:24.579Z,99861.94
2022-11-15T21:26:51.985Z,99865.47
2022-11-15T21:29:19.220Z,99867.19
2022-11-15T21:31:47.809Z,99859.44
2022-11-15T21:34:15.429Z,99848.22
2022-11-15T21:36:42.686Z,99842.16
2022-11-15T21:39:09.921Z,99846.50
2022-11-15T21:41:37.448Z,99844.78
2022-11-15T21:44:04.709Z,99844.78
2022-11-15T21:46:32.391Z,99848.22
2022-11-15T21:48:59.416Z,99849.94
2022-11-15T21:51:26.485Z,99843.91
2022-11-15T21:53:55.672Z,99836.13
2022-11-15T21:56:23.213Z,99837.00
2022-11-15T21:58:50.310Z,99833.56
2022-11-15T22:01:40.591Z,99824.94
2022-11-15T22:04:07.886Z,99830.09
2022-11-15T22:06:35.668Z,99823.22
2022-11-15T22:09:03.509Z,99822.34
2022-11-15T22:11:30.931Z,99822.34
2022-11-15T22:13:58.252Z,99819.78
2022-11-15T22:16:25.281Z,99820.63
2022-11-15T22:18:52.259Z,99815.44
2022-11-15T22:21:19.405Z,99812.00
2022-11-15T22:23:47.105Z,99808.53
2022-11-15T22:26:20.810Z,99808.53
2022-11-15T22:28:50.420Z,99810.25
2022-11-15T22:31:17.469Z,99810.22
2022-11-15T22:33:44.583Z,99800.72
2022-11-15T22:36:12.868Z,99805.94
2022-11-15T22:38:40.497Z,99794.72
2022-11-15T22:41:08.443Z,99800.78
2022-11-15T22:43:35.557Z,99802.50
2022-11-15T22:46:03.798Z,99792.16
2022-11-15T22:48:35.416Z,99787.00
2022-11-15T22:51:03.134Z,99785.28
2022-11-15T22:53:30.613Z,99780.03
2022-11-15T22:56:00.208Z,99781.78
2022-11-15T22:58:29.423Z,99779.19
2022-11-15T23:00:58.926Z,99766.22
2022-11-15T23:03:27.551Z,99770.59
2022-11-15T23:05:54.670Z,99768.00
2022-11-15T23:08:22.996Z,99768.03
2022-11-15T23:11:08.485Z,99773.19
2022-11-15T23:13:35.555Z,99768.03
2022-11-15T23:16:28.641Z,99767.16
2022-11-15T23:19:00.189Z,99750.78
2022-11-15T23:21:47.070Z,99747.34
2022-11-15T23:24:15.421Z,99746.44
2022-11-15T23:26:43.634Z,99754.22
2022-11-15T23:29:12.763Z,99746.47
2022-11-15T23:32:02.178Z,99748.16
2022-11-15T23:34:35.277Z,99749.91
2022-11-15T23:37:02.837Z,99743.88
2022-11-15T23:39:29.888Z,99732.63
2022-11-15T23:41:57.523Z,99735.22
2022-11-15T23:44:25.082Z,99732.66
2022-11-15T23:46:52.773Z,99734.38
2022-11-15T23:49:20.097Z,99730.03
2022-11-15T23:51:47.702Z,99724.88
2022-11-15T23:54:15.359Z,99726.56
2022-11-15T23:56:42.435Z,99726.63
2022-11-15T23:59:09.432Z,99722.28
